Time;durP1;ratioP1;P1;durP2;ratioP2;P2;SDS_P1;SDS_P2;PMS_P1;PMS_P2;Temp;Humidity;BMP_temperature;BMP_pressure;BME280_temperature;BME280_humidity;BME280_pressure;Samples;Min_cycle;Max_cycle;Signal;HPM_P1;HPM_P2
2022/07/23 00:00:47;;;;;;;9.55;5.15;;;;;;;25.92;45.51;95213.25;4982104;28;20438;-52
2022/07/23 00:03:12;;;;;;;7.15;4.80;;;;;;;25.86;45.25;95215.34;4982549;28;20075;-52
2022/07/23 00:05:38;;;;;;;7.50;5.03;;;;;;;25.87;45.61;95216.81;4982442;28;20038;-52
2022/07/23 00:08:04;;;;;;;7.65;4.90;;;;;;;25.86;45.69;95220.09;4965067;28;20154;-52
2022/07/23 00:10:30;;;;;;;7.43;4.78;;;;;;;25.85;45.68;95224.81;4982876;28;20109;-52
2022/07/23 00:12:55;;;;;;;8.18;4.45;;;;;;;25.82;45.84;95231.31;4980469;28;20109;-52
2022/07/23 00:15:20;;;;;;;9.15;4.93;;;;;;;25.79;45.79;95230.91;4982809;28;20046;-52
2022/07/23 00:17:46;;;;;;;6.97;5.20;;;;;;;25.77;45.84;95227.91;4982126;28;20029;-53
2022/07/23 00:20:12;;;;;;;8.50;5.03;;;;;;;25.74;45.95;95228.97;4982857;28;20042;-51
2022/07/23 00:22:48;;;;;;;7.68;5.20;;;;;;;25.73;45.96;95230.22;4960298;28;20042;-51
2022/07/23 00:25:14;;;;;;;8.00;5.10;;;;;;;25.69;45.98;95227.03;4963111;28;20051;-52
2022/07/23 00:27:39;;;;;;;7.93;4.93;;;;;;;25.66;46.12;95234.28;4962072;28;20034;-52
2022/07/23 00:30:05;;;;;;;9.20;5.00;;;;;;;25.64;46.32;95225.88;4962213;28;20042;-52
2022/07/23 00:32:30;;;;;;;9.52;4.88;;;;;;;25.62;46.42;95238.53;4961753;28;20125;-52
2022/07/23 00:34:56;;;;;;;9.23;5.10;;;;;;;25.59;46.36;95240.34;4962923;28;20494;-52
2022/07/23 00:37:21;;;;;;;7.80;5.05;;;;;;;25.57;46.38;95236.63;4961956;28;20026;-53
2022/07/23 00:39:47;;;;;;;8.45;5.18;;;;;;;25.55;46.55;95236.44;4962672;28;20077;-52
2022/07/23 00:42:12;;;;;;;7.13;4.85;;;;;;;25.53;46.54;95230.72;4955959;28;20027;-51
2022/07/23 00:44:38;;;;;;;8.75;5.10;;;;;;;25.51;46.83;95227.78;4961070;28;20608;-52
2022/07/23 00:47:05;;;;;;;8.77;5.15;;;;;;;25.49;46.94;95235.75;4965749;28;20688;-52
2022/07/23 00:49:31;;;;;;;8.45;5.47;;;;;;;25.48;46.37;95228.81;4966653;28;20038;-51
2022/07/23 00:51:56;;;;;;;10.57;5.18;;;;;;;25.44;47.03;95234.56;4964874;28;20038;-52
2022/07/23 00:54:23;;;;;;;8.20;5.20;;;;;;;25.43;46.82;95237.81;4965083;28;20109;-52
2022/07/23 00:56:48;;;;;;;8.48;4.90;;;;;;;25.39;46.99;95231.91;4963936;28;20045;-52
2022/07/23 00:59:14;;;;;;;7.60;5.07;;;;;;;25.37;47.22;95231.69;4964735;28;20494;-50
2022/07/23 01:01:40;;;;;;;9.02;5.13;;;;;;;25.32;47.00;95227.78;4965629;28;20524;-51
2022/07/23 01:04:05;;;;;;;9.07;5.35;;;;;;;25.32;47.01;95235.25;4965663;28;20027;-51
2022/07/23 01:06:34;;;;;;;8.32;5.30;;;;;;;25.31;47.30;95233.75;4964354;28;20022;-51
2022/07/23 01:09:00;;;;;;;10.20;5.18;;;;;;;25.29;47.39;95233.53;4964606;28;20026;-51
2022/07/23 01:11:25;;;;;;;7.65;5.00;;;;;;;25.26;47.05;95229.09;4964123;28;20031;-51
2022/07/23 01:13:51;;;;;;;7.85;5.32;;;;;;;25.24;47.13;95230.88;4959466;28;20031;-52
2022/07/23 01:16:16;;;;;;;7.45;5.07;;;;;;;25.19;47.39;95228.94;4963382;28;20015;-52
2022/07/23 01:18:42;;;;;;;8.75;5.25;;;;;;;25.19;47.50;95223.50;4965592;28;20027;-52
2022/07/23 01:21:09;;;;;;;7.63;4.97;;;;;;;25.15;47.27;95229.22;4971562;28;20038;-52
2022/07/23 01:23:34;;;;;;;10.43;5.25;;;;;;;25.16;47.27;95219.06;4984995;28;20116;-52
2022/07/23 01:25:59;;;;;;;7.35;4.75;;;;;;;25.14;47.41;95222.31;4984933;28;20026;-52
2022/07/23 01:28:25;;;;;;;12.38;5.88;;;;;;;25.11;46.71;95228.78;4984353;28;20042;-52
2022/07/23 01:30:50;;;;;;;7.90;4.90;;;;;;;25.16;45.77;95229.97;4984711;28;20034;-52
2022/07/23 01:33:16;;;;;;;6.75;5.38;;;;;;;25.15;45.53;95223.03;4984524;28;20120;-53
2022/07/23 01:35:41;;;;;;;8.90;5.38;;;;;;;25.13;45.71;95212.63;4984425;28;20034;-52
2022/07/23 01:38:07;;;;;;;10.05;5.47;;;;;;;25.10;46.31;95215.66;4984011;28;20076;-50
2022/07/23 01:40:32;;;;;;;9.48;5.28;;;;;;;25.09;45.92;95220.34;4985068;28;20548;-51
2022/07/23 01:42:58;;;;;;;8.95;5.35;;;;;;;25.06;46.07;95215.91;4972337;28;20446;-52
2022/07/23 01:45:23;;;;;;;8.80;5.65;;;;;;;25.06;45.91;95221.38;4982940;28;20033;-53
2022/07/23 01:47:49;;;;;;;8.23;4.88;;;;;;;25.02;45.97;95220.94;4984351;28;20703;-52
2022/07/23 01:50:14;;;;;;;8.10;4.68;;;;;;;25.01;45.19;95218.75;4984478;28;20531;-52
2022/07/23 01:52:40;;;;;;;8.45;4.47;;;;;;;25.03;45.08;95225.16;4984018;28;20465;-52
2022/07/23 01:55:06;;;;;;;8.77;5.30;;;;;;;25.01;44.72;95224.94;4984204;28;20034;-53
2022/07/23 01:57:32;;;;;;;8.80;5.18;;;;;;;24.98;45.28;95217.72;4984169;28;20125;-53
2022/07/23 01:59:57;;;;;;;7.22;5.15;;;;;;;24.97;45.41;95218.97;4967216;28;20573;-52
2022/07/23 02:02:23;;;;;;;7.20;4.85;;;;;;;24.95;45.41;95216.03;4983379;28;20478;-52
2022/07/23 02:04:49;;;;;;;11.50;6.05;;;;;;;24.95;45.67;95218.75;4984383;28;20613;-52
2022/07/23 02:07:14;;;;;;;7.70;4.63;;;;;;;24.94;45.30;95225.47;4966352;28;20085;-50
2022/07/23 02:09:39;;;;;;;8.15;4.80;;;;;;;24.92;45.51;95227.97;4984626;28;20026;-51
2022/07/23 02:12:05;;;;;;;7.53;4.93;;;;;;;24.93;45.58;95228.72;4983418;28;20041;-51
2022/07/23 02:14:30;;;;;;;8.00;4.68;;;;;;;24.89;45.97;95220.81;4968867;28;20448;-52
2022/07/23 02:16:56;;;;;;;7.90;5.32;;;;;;;24.86;46.25;95227.31;4983782;28;20030;-52
2022/07/23 02:19:21;;;;;;;8.60;4.72;;;;;;;24.84;46.06;95220.88;4984167;28;20457;-51
2022/07/23 02:21:47;;;;;;;7.18;4.53;;;;;;;24.81;46.49;95223.91;4983364;28;20413;-52
2022/07/23 02:24:12;;;;;;;8.35;4.80;;;;;;;24.80;46.60;95227.88;4983692;28;20057;-51
2022/07/23 02:26:38;;;;;;;6.90;4.82;;;;;;;24.79;46.60;95223.69;4983158;28;20053;-52
2022/07/23 02:29:03;;;;;;;6.72;4.55;;;;;;;24.76;46.57;95230.16;4975245;28;20046;-50
2022/07/23 02:31:29;;;;;;;8.65;4.90;;;;;;;24.75;46.72;95217.75;4982372;28;20030;-52
2022/07/23 02:33:55;;;;;;;8.10;5.22;;;;;;;24.75;46.40;95223.22;4966439;28;20698;-51
2022/07/23 02:36:21;;;;;;;8.38;5.00;;;;;;;24.68;46.49;95212.84;4983096;28;20023;-51
2022/07/23 02:38:46;;;;;;;7.10;4.90;;;;;;;24.70;46.64;95227.50;4983491;28;20034;-51
2022/07/23 02:41:12;;;;;;;6.15;4.93;;;;;;;24.73;46.29;95225.72;4983280;28;20648;-51
2022/07/23 02:43:38;;;;;;;10.32;5.13;;;;;;;24.71;46.29;95228.22;4969948;28;20077;-52
2022/07/23 02:46:03;;;;;;;6.65;4.45;;;;;;;24.69;46.85;95236.19;4983245;28;20038;-51
2022/07/23 02:48:29;;;;;;;8.88;5.07;;;;;;;24.66;46.52;95226.28;4965634;28;20030;-52
2022/07/23 02:50:56;;;;;;;9.93;4.85;;;;;;;24.65;46.79;95235.72;4983231;28;20524;-53
2022/07/23 02:53:22;;;;;;;7.07;4.88;;;;;;;24.60;47.31;95233.81;4983043;28;20064;-51
2022/07/23 02:55:47;;;;;;;7.93;5.00;;;;;;;24.61;46.59;95224.38;4970065;28;20027;-52
2022/07/23 02:58:13;;;;;;;7.95;5.05;;;;;;;24.58;46.97;95236.31;4983242;28;20035;-52
2022/07/23 03:00:38;;;;;;;7.00;4.70;;;;;;;24.60;47.09;95244.72;4982822;28;20034;-52
2022/07/23 03:03:04;;;;;;;7.15;4.90;;;;;;;24.56;47.05;95255.22;4982383;28;20487;-52
2022/07/23 03:05:29;;;;;;;9.10;5.43;;;;;;;24.56;47.42;95250.47;4983213;28;20482;-52
2022/07/23 03:07:54;;;;;;;6.30;4.80;;;;;;;24.51;47.13;95253.25;4981860;28;20823;-51
2022/07/23 03:10:20;;;;;;;7.68;5.00;;;;;;;24.51;47.54;95254.00;4983472;28;20030;-51
2022/07/23 03:12:45;;;;;;;11.05;4.78;;;;;;;24.50;47.20;95251.78;4982120;28;20130;-51
2022/07/23 03:15:11;;;;;;;6.65;5.10;;;;;;;24.50;47.31;95257.25;4982767;28;20045;-51
2022/07/23 03:17:36;;;;;;;9.50;4.65;;;;;;;24.49;47.39;95255.75;4982207;28;20010;-52
2022/07/23 03:20:02;;;;;;;6.18;4.70;;;;;;;24.44;47.86;95262.03;4983070;28;20026;-52
2022/07/23 03:22:27;;;;;;;7.60;4.82;;;;;;;24.43;47.65;95263.25;4982350;28;20100;-51
2022/07/23 03:24:56;;;;;;;7.93;4.72;;;;;;;24.42;47.69;95257.06;4982536;28;20084;-53
2022/07/23 03:27:25;;;;;;;7.43;5.13;;;;;;;24.43;47.68;95268.72;4982181;28;20490;-52
2022/07/23 03:29:55;;;;;;;7.55;5.00;;;;;;;24.41;48.03;95271.22;4974059;28;20026;-52
2022/07/23 03:32:20;;;;;;;9.85;5.47;;;;;;;24.39;47.96;95268.25;4982456;28;20042;-52
2022/07/23 03:34:46;;;;;;;8.00;4.80;;;;;;;24.32;48.16;95255.16;4982854;28;20030;-52
2022/07/23 03:37:11;;;;;;;7.95;5.05;;;;;;;24.35;48.16;95273.25;4981733;28;20509;-52
2022/07/23 03:39:37;;;;;;;9.45;5.28;;;;;;;24.36;48.34;95269.25;4982655;28;20061;-52
2022/07/23 03:42:02;;;;;;;7.90;4.80;;;;;;;24.33;47.97;95270.28;4977516;28;20137;-51
2022/07/23 03:44:28;;;;;;;8.15;5.45;;;;;;;24.32;48.19;95279.72;4973782;28;20030;-52
2022/07/23 03:46:53;;;;;;;8.45;5.55;;;;;;;24.28;48.19;95273.06;4981038;28;20038;-51
2022/07/23 03:49:19;;;;;;;9.32;5.28;;;;;;;24.29;48.29;95280.72;4980698;28;20085;-52
2022/07/23 06:37:00;;;;;;;7.65;5.57;;;;;;;27.79;42.23;95284.06;4980490;28;20049;-54
2022/07/23 06:39:26;;;;;;;13.88;6.28;;;;;;;27.90;41.50;95277.59;4969170;28;20042;-53
2022/07/23 06:41:51;;;;;;;12.18;6.32;;;;;;;28.07;41.43;95286.94;4994653;28;20108;-54
2022/07/23 06:44:17;;;;;;;8.77;5.70;;;;;;;28.16;41.77;95283.75;4981606;28;20019;-54
2022/07/23 06:46:43;;;;;;;11.82;6.03;;;;;;;28.17;41.47;95290.72;4961501;28;20074;-55
2022/07/23 06:49:08;;;;;;;9.65;6.25;;;;;;;28.24;41.70;95284.56;4979777;28;20019;-55
2022/07/23 06:51:34;;;;;;;15.82;6.75;;;;;;;28.27;41.63;95283.50;4981229;28;20031;-54
2022/07/23 06:53:59;;;;;;;11.80;6.03;;;;;;;28.27;40.69;95284.22;4981171;28;20050;-57
2022/07/23 06:56:25;;;;;;;10.35;6.00;;;;;;;28.45;40.85;95282.56;4985246;28;20040;-56
2022/07/23 06:58:50;;;;;;;10.52;6.40;;;;;;;28.49;40.07;95277.44;4990286;28;20057;-54
2022/07/23 07:01:16;;;;;;;13.30;6.90;;;;;;;28.56;40.55;95282.28;4981333;28;20038;-54
2022/07/23 07:03:41;;;;;;;11.50;6.25;;;;;;;28.66;40.88;95280.56;4970376;28;20042;-53
2022/07/23 07:06:07;;;;;;;11.30;6.68;;;;;;;28.69;40.30;95274.72;4981305;28;20512;-53
2022/07/23 07:08:32;;;;;;;13.70;6.20;;;;;;;28.78;39.96;95280.47;4996690;28;20022;-53
2022/07/23 07:10:58;;;;;;;9.13;5.63;;;;;;;28.87;39.49;95279.28;4999999;28;20485;-53
2022/07/23 07:13:23;;;;;;;10.30;5.63;;;;;;;28.90;39.51;95267.91;5000450;28;20018;-52
2022/07/23 07:15:49;;;;;;;10.18;5.90;;;;;;;29.01;39.51;95278.63;5000532;28;20030;-51
2022/07/23 07:18:14;;;;;;;10.25;6.15;;;;;;;29.10;39.47;95267.13;4994795;28;20029;-52
2022/07/23 07:20:40;;;;;;;11.50;6.15;;;;;;;29.17;38.86;95262.97;4993001;28;20029;-52
2022/07/23 07:23:05;;;;;;;12.07;5.78;;;;;;;29.25;38.14;95261.75;5000208;28;20014;-51
2022/07/23 07:25:30;;;;;;;8.38;5.32;;;;;;;29.36;38.98;95272.47;4982986;28;20702;-52
2022/07/23 07:27:56;;;;;;;10.23;6.30;;;;;;;29.38;38.91;95267.13;4992523;28;20061;-52
2022/07/23 07:30:21;;;;;;;8.65;5.10;;;;;;;29.47;38.41;95261.84;4991249;28;20033;-52
2022/07/23 07:32:47;;;;;;;9.13;5.20;;;;;;;29.50;38.41;95257.28;4971566;28;20532;-52
2022/07/23 07:35:12;;;;;;;8.65;5.30;;;;;;;29.53;38.65;95258.97;5000046;28;20042;-52
2022/07/23 07:37:38;;;;;;;9.18;5.45;;;;;;;29.59;38.19;95259.53;4993341;28;20022;-52
2022/07/23 07:40:03;;;;;;;10.48;5.50;;;;;;;29.66;37.74;95264.34;4987131;28;20706;-52
2022/07/23 07:42:30;;;;;;;8.27;5.28;;;;;;;29.70;37.81;95255.19;4999727;28;20006;-52
2022/07/23 07:44:55;;;;;;;8.02;5.10;;;;;;;29.76;37.50;95255.75;5000281;28;20049;-53
2022/07/23 07:47:20;;;;;;;7.85;5.47;;;;;;;29.81;37.63;95257.63;4992636;28;20018;-53
2022/07/23 07:49:46;;;;;;;9.18;5.40;;;;;;;29.82;37.37;95256.34;4979999;28;20504;-51
2022/07/23 07:52:11;;;;;;;8.60;5.43;;;;;;;29.82;37.83;95256.34;4999468;28;20034;-53
2022/07/23 07:54:37;;;;;;;7.78;4.95;;;;;;;29.83;37.35;95257.06;4991864;28;20034;-51
2022/07/23 07:57:02;;;;;;;9.77;5.40;;;;;;;29.86;38.04;95248.44;4953839;28;20543;-54
2022/07/23 07:59:28;;;;;;;8.55;5.50;;;;;;;29.88;37.74;95251.41;4990778;28;20033;-56
2022/07/23 08:01:53;;;;;;;6.72;4.75;;;;;;;29.92;37.71;95243.50;4980646;28;20053;-54
2022/07/23 08:04:19;;;;;;;7.88;5.40;;;;;;;29.95;38.12;95242.41;4987106;28;20033;-54
2022/07/23 08:06:44;;;;;;;7.43;4.95;;;;;;;29.97;37.86;95250.88;4998275;28;20026;-55
2022/07/23 08:09:10;;;;;;;8.98;4.93;;;;;;;30.04;37.69;95243.91;4982198;28;20026;-52
2022/07/23 08:11:35;;;;;;;8.63;4.55;;;;;;;30.06;37.42;95247.59;4987326;28;20695;-53
2022/07/23 08:14:01;;;;;;;6.90;4.60;;;;;;;30.09;37.80;95235.47;5000132;28;20033;-53
2022/07/23 08:16:26;;;;;;;7.35;4.82;;;;;;;30.14;37.61;95242.84;4999567;28;20029;-56
2022/07/23 08:18:51;;;;;;;8.38;5.13;;;;;;;30.18;37.77;95243.22;4985646;28;20715;-56
2022/07/23 08:21:17;;;;;;;9.15;4.85;;;;;;;30.20;37.94;95235.13;4996697;28;20112;-52
2022/07/23 08:23:42;;;;;;;7.05;5.05;;;;;;;30.23;37.63;95234.03;4999442;28;20018;-53
2022/07/23 08:26:08;;;;;;;7.03;5.13;;;;;;;30.24;37.65;95241.75;4992049;28;20026;-52
2022/07/23 08:28:33;;;;;;;7.13;4.80;;;;;;;30.30;37.59;95236.06;4986393;28;20216;-53
2022/07/23 08:30:59;;;;;;;8.48;5.25;;;;;;;30.31;37.36;95237.50;4992707;28;20783;-53
2022/07/23 08:33:25;;;;;;;10.18;5.05;;;;;;;30.32;37.27;95236.97;4989446;28;20035;-54
2022/07/23 08:35:52;;;;;;;8.27;5.30;;;;;;;30.39;37.76;95232.78;4980706;28;20513;-53
2022/07/23 08:38:19;;;;;;;8.27;4.80;;;;;;;30.49;37.62;95233.69;4991166;28;20030;-52
2022/07/23 08:40:51;;;;;;;6.40;4.85;;;;;;;30.48;37.40;95226.69;4974909;28;20856;-52
2022/07/23 08:43:23;;;;;;;7.13;4.65;;;;;;;30.44;37.57;95231.88;4981328;28;20033;-52
2022/07/23 08:45:50;;;;;;;8.15;4.82;;;;;;;30.43;37.52;95224.88;4994461;28;20085;-52
2022/07/23 08:48:20;;;;;;;6.85;4.68;;;;;;;30.51;37.07;95231.88;4978262;28;20069;-52
2022/07/23 08:50:47;;;;;;;6.78;4.85;;;;;;;30.45;37.34;95228.56;4976871;28;20023;-52
2022/07/23 08:53:12;;;;;;;6.82;4.75;;;;;;;30.47;37.65;95225.25;4978606;28;20046;-52
2022/07/23 08:55:38;;;;;;;7.82;4.78;;;;;;;30.49;37.69;95222.66;4977506;28;20073;-52
2022/07/23 08:58:04;;;;;;;8.93;4.63;;;;;;;30.49;37.58;95222.66;4960715;28;20516;-52
2022/07/23 09:00:30;;;;;;;6.70;5.15;;;;;;;30.50;37.84;95213.84;4979052;28;20034;-52
2022/07/23 09:02:56;;;;;;;8.05;5.00;;;;;;;30.53;37.81;95223.06;4976954;28;20026;-52
2022/07/23 09:05:21;;;;;;;7.22;4.85;;;;;;;30.57;37.15;95217.88;4962598;28;20074;-53
2022/07/23 09:08:08;;;;;;;6.45;4.78;;;;;;;30.63;37.34;95207.41;4980461;28;20030;-53
2022/07/23 09:10:56;;;;;;;8.30;4.93;;;;;;;30.65;36.96;95214.56;4981511;28;20602;-53
2022/07/23 09:13:31;;;;;;;5.30;4.55;;;;;;;30.65;37.07;95204.84;4980978;28;20073;-53
2022/07/23 09:16:05;;;;;;;6.43;4.65;;;;;;;30.63;37.18;95210.91;4988716;28;20033;-54
2022/07/23 09:18:34;;;;;;;7.10;4.47;;;;;;;30.69;37.15;95212.19;4963050;28;20199;-54
2022/07/23 09:21:16;;;;;;;;;;;;;;;30.82;37.34;95212.00;4983597;28;20073;-52
2022/07/23 09:23:41;;;;;;;5.50;4.35;;;;;;;30.78;37.19;95206.09;4992698;28;19917;-52
2022/07/23 09:26:37;;;;;;;7.13;4.72;;;;;;;30.84;37.16;95209.41;4995245;28;20039;-51
2022/07/23 09:29:12;;;;;;;5.30;4.20;;;;;;;30.76;37.22;95203.19;4980962;28;20042;-53
2022/07/23 09:31:54;;;;;;;6.53;4.60;;;;;;;30.63;36.67;95194.38;4997101;28;20025;-51
2022/07/23 09:34:46;;;;;;;6.82;4.15;;;;;;;30.44;37.60;95199.50;4987581;28;20022;-52
2022/07/23 09:37:13;;;;;;;6.47;4.43;;;;;;;30.21;38.40;95209.06;4980576;28;20030;-55
2022/07/23 09:39:38;;;;;;;6.10;4.03;;;;;;;30.04;38.63;95199.84;4983106;28;20093;-54
2022/07/23 09:42:26;;;;;;;7.05;4.38;;;;;;;29.87;39.32;95197.59;4982859;28;20354;-56
2022/07/23 09:44:53;;;;;;;5.63;4.68;;;;;;;29.81;39.53;95188.78;4987270;28;20037;-54
2022/07/23 09:47:18;;;;;;;5.90;4.22;;;;;;;29.74;39.86;95194.22;4993106;28;20026;-54
2022/07/23 09:50:08;;;;;;;6.72;4.25;;;;;;;29.52;39.85;95188.66;4982899;28;20287;-52
2022/07/23 09:52:48;;;;;;;6.32;4.20;;;;;;;29.36;40.61;95189.91;4998415;28;20057;-50
2022/07/23 09:55:13;;;;;;;6.13;3.92;;;;;;;29.27;40.64;95193.91;4989611;28;20077;-53
2022/07/23 09:57:40;;;;;;;7.65;4.70;;;;;;;29.19;40.45;95189.59;4987724;28;20053;-55
2022/07/23 10:00:08;;;;;;;4.97;3.35;;;;;;;29.17;40.47;95186.66;4982332;28;20026;-53
2022/07/23 10:02:33;;;;;;;5.30;4.00;;;;;;;29.00;41.42;95175.41;4992975;28;20022;-52
2022/07/23 10:04:59;;;;;;;5.15;3.78;;;;;;;28.85;41.53;95172.56;4982192;28;20437;-51
2022/07/23 10:07:26;;;;;;;4.80;4.10;;;;;;;28.80;41.54;95170.72;4962953;28;20070;-51
2022/07/23 10:09:52;;;;;;;5.47;3.97;;;;;;;28.72;41.16;95173.97;4979838;28;20065;-52
2022/07/23 10:14:47;;;;;;;4.82;4.07;;;;;;;28.65;41.94;95169.84;4977954;28;20042;-52
2022/07/23 10:17:12;;;;;;;6.05;4.38;;;;;;;28.65;41.75;95174.63;4982978;28;20591;-54
2022/07/23 10:19:38;;;;;;;5.50;3.97;;;;;;;28.54;42.05;95163.94;5001836;28;20203;-53
2022/07/23 10:22:14;;;;;;;6.18;3.90;;;;;;;28.53;41.50;95156.94;5000720;28;20762;-52
2022/07/23 10:24:53;;;;;;;4.78;3.92;;;;;;;28.48;41.98;95166.09;4999411;28;20144;-51
2022/07/23 10:27:31;;;;;;;6.15;3.90;;;;;;;28.40;42.17;95159.78;4964295;28;20403;-51
2022/07/23 10:30:04;;;;;;;5.03;3.85;;;;;;;28.37;41.92;95155.38;4994691;28;20034;-51
2022/07/23 10:32:48;;;;;;;5.63;3.58;;;;;;;28.26;42.60;95152.91;4975304;28;20136;-51
2022/07/23 10:35:29;;;;;;;4.53;3.78;;;;;;;28.26;42.44;95155.66;4996135;28;20126;-50
2022/07/23 10:38:17;;;;;;;4.95;3.50;;;;;;;28.22;42.05;95152.53;4976350;28;20026;-50
2022/07/23 10:41:02;;;;;;;6.45;3.83;;;;;;;28.24;42.63;95147.22;4974469;28;20121;-52
2022/07/23 10:43:28;;;;;;;4.75;3.50;;;;;;;28.22;42.44;95144.28;4981989;28;20042;-53
2022/07/23 10:45:54;;;;;;;4.53;3.80;;;;;;;28.12;42.12;95140.53;4987447;28;20030;-53
2022/07/23 10:48:23;;;;;;;4.63;3.63;;;;;;;28.10;42.75;95137.59;4971475;28;20400;-51
2022/07/23 10:51:09;;;;;;;4.38;3.30;;;;;;;28.02;42.89;95139.50;4990027;28;20444;-52
2022/07/23 10:53:49;;;;;;;4.63;3.83;;;;;;;27.91;42.81;95134.28;4987671;28;20113;-51
2022/07/23 10:56:15;;;;;;;4.07;3.58;;;;;;;27.94;43.11;95130.47;4986142;28;20089;-51
2022/07/23 10:58:48;;;;;;;4.20;3.50;;;;;;;27.91;42.43;95128.81;4984927;28;20124;-52
2022/07/23 11:01:36;;;;;;;3.92;3.50;;;;;;;27.80;43.14;95120.84;4983071;28;20480;-51
2022/07/23 11:04:01;;;;;;;4.15;3.70;;;;;;;27.82;43.07;95112.81;4995946;28;20032;-53
2022/07/23 11:06:49;;;;;;;4.45;3.13;;;;;;;27.75;43.26;95113.47;4958978;28;20030;-52
2022/07/23 11:09:37;;;;;;;4.28;3.08;;;;;;;27.75;42.71;95113.47;4976970;28;20124;-52
2022/07/23 11:12:21;;;;;;;3.60;3.00;;;;;;;27.83;43.00;95100.56;4988382;28;20064;-56
2022/07/23 11:15:15;;;;;;;3.92;3.25;;;;;;;27.77;42.73;95110.94;4990894;28;20030;-52
2022/07/23 11:17:43;;;;;;;4.45;3.22;;;;;;;27.78;42.65;95100.69;4982647;28;20037;-52
2022/07/23 11:20:13;;;;;;;4.20;3.40;;;;;;;27.81;42.55;95100.34;5003238;28;20036;-58
2022/07/23 11:22:38;;;;;;;;;;;;;;;27.72;42.68;95091.13;5001745;28;20080;-53
2022/07/23 11:25:04;;;;;;;4.97;3.45;;;;;;;27.78;43.01;95093.19;4999647;28;19913;-52
2022/07/23 11:28:16;;;;;;;4.22;3.20;;;;;;;27.78;42.87;95084.94;4988303;28;20062;-52
2022/07/23 11:30:43;;;;;;;4.60;3.33;;;;;;;27.80;43.10;95085.16;4980811;28;20711;-53
2022/07/23 11:33:08;;;;;;;4.65;3.45;;;;;;;27.75;43.03;95091.50;4999889;28;20053;-51
2022/07/23 11:35:35;;;;;;;4.35;3.50;;;;;;;27.76;42.63;95084.75;4983382;28;20598;-54
2022/07/23 11:38:09;;;;;;;4.20;3.65;;;;;;;27.80;42.58;95082.41;4977062;28;20030;-54
2022/07/23 11:40:34;;;;;;;5.63;3.67;;;;;;;27.80;43.10;95076.19;4980121;28;20026;-52
2022/07/23 11:43:02;;;;;;;4.88;3.30;;;;;;;27.79;42.51;95069.97;5000043;28;20030;-54
2022/07/23 11:45:43;;;;;;;4.20;3.33;;;;;;;27.81;43.11;95072.91;4995348;28;20017;-52
2022/07/23 11:48:15;;;;;;;4.03;3.10;;;;;;;27.80;43.10;95071.44;4985069;28;20123;-52
2022/07/23 11:50:40;;;;;;;4.45;3.25;;;;;;;27.80;43.24;95073.44;4991589;28;20021;-52
2022/07/23 11:53:06;;;;;;;4.10;2.95;;;;;;;27.79;43.39;95069.97;4999843;28;20086;-52
2022/07/23 11:55:31;;;;;;;5.00;3.38;;;;;;;27.74;43.09;95068.09;4993967;28;20062;-52
2022/07/23 11:57:57;;;;;;;4.85;3.47;;;;;;;27.80;43.03;95071.44;4980919;28;20053;-51
2022/07/23 12:00:24;;;;;;;5.05;2.90;;;;;;;27.83;43.21;95061.38;4988706;28;20145;-51
2022/07/23 12:02:55;;;;;;;3.85;3.10;;;;;;;27.81;43.21;95056.44;4979514;28;20089;-51
2022/07/23 12:05:25;;;;;;;4.93;3.30;;;;;;;27.78;43.63;95065.72;4979929;28;20521;-51
2022/07/23 12:07:51;;;;;;;3.75;3.08;;;;;;;27.75;43.68;95069.56;4980047;28;20494;-53
2022/07/23 12:10:19;;;;;;;5.40;2.88;;;;;;;27.77;43.54;95067.03;4981261;28;20481;-56
2022/07/23 12:12:45;;;;;;;4.28;2.90;;;;;;;27.77;43.91;95064.28;4967428;28;20502;-51
2022/07/23 12:15:12;;;;;;;3.85;2.80;;;;;;;27.80;43.38;95060.47;4963786;28;20035;-53
2022/07/23 12:17:39;;;;;;;4.22;3.08;;;;;;;27.79;43.68;95058.25;4963657;28;20034;-52
2022/07/23 12:20:06;;;;;;;4.90;3.17;;;;;;;27.77;43.83;95055.28;4966707;28;20508;-56
2022/07/23 12:22:42;;;;;;;4.43;3.05;;;;;;;27.75;44.07;95050.34;4977946;28;20031;-55
2022/07/23 12:25:15;;;;;;;4.70;3.10;;;;;;;27.72;43.66;95052.69;4978365;28;20540;-53
2022/07/23 12:27:41;;;;;;;4.20;2.88;;;;;;;27.74;44.18;95046.13;4986762;28;20065;-56
2022/07/23 12:30:26;;;;;;;5.22;2.90;;;;;;;27.74;43.71;95043.41;5001413;28;20030;-51
2022/07/23 12:32:56;;;;;;;4.25;2.90;;;;;;;27.75;44.02;95047.59;4974143;28;20120;-51
2022/07/23 12:35:22;;;;;;;4.05;2.63;;;;;;;27.76;43.54;95043.59;4970112;28;20054;-50
2022/07/23 12:37:49;;;;;;;4.82;2.72;;;;;;;27.76;43.59;95043.59;4966340;28;20493;-51
2022/07/23 12:40:19;;;;;;;3.58;2.50;;;;;;;27.74;43.78;95035.16;4968806;28;20033;-51
2022/07/23 12:42:46;;;;;;;4.88;2.80;;;;;;;27.76;44.00;95032.59;4983637;28;20076;-51
2022/07/23 12:45:12;;;;;;;5.13;2.92;;;;;;;27.80;43.31;95038.50;4974668;28;20380;-51
2022/07/23 12:47:55;;;;;;;4.22;2.88;;;;;;;27.79;43.89;95028.78;4972660;28;20427;-52
2022/07/23 12:50:41;;;;;;;3.42;2.50;;;;;;;27.81;43.17;95023.47;4972980;28;20169;-52
2022/07/23 12:53:12;;;;;;;4.40;2.70;;;;;;;27.85;43.02;95023.88;4983591;28;20125;-50
2022/07/23 12:55:38;;;;;;;3.45;2.40;;;;;;;27.85;43.16;95023.88;4968887;28;20113;-50
2022/07/23 12:58:13;;;;;;;3.50;2.38;;;;;;;27.79;43.72;95020.56;4968316;28;20215;-52
2022/07/23 13:00:52;;;;;;;3.70;2.25;;;;;;;27.74;43.50;95009.72;4983947;28;20026;-51
2022/07/23 13:03:31;;;;;;;3.72;2.47;;;;;;;27.80;42.92;95022.03;4978388;28;20035;-52
2022/07/23 13:05:57;;;;;;;3.23;2.40;;;;;;;27.82;43.09;95013.25;4960998;28;20038;-51
2022/07/23 13:08:23;;;;;;;3.78;2.65;;;;;;;27.82;43.61;95016.72;4966042;28;20038;-52
2022/07/23 13:10:50;;;;;;;2.95;2.30;;;;;;;27.84;43.32;95005.94;4968522;28;20485;-52
2022/07/23 13:13:17;;;;;;;3.90;2.50;;;;;;;27.87;43.21;95002.13;4983203;28;20034;-53
2022/07/23 13:15:45;;;;;;;4.03;2.70;;;;;;;27.86;42.93;95008.16;4955054;28;20700;-51
2022/07/23 13:18:11;;;;;;;6.15;2.72;;;;;;;27.86;42.92;95014.41;4972067;28;20034;-51
2022/07/23 13:20:38;;;;;;;4.18;2.50;;;;;;;27.85;43.02;95006.69;4977839;28;20399;-52
2022/07/23 13:23:04;;;;;;;3.78;2.42;;;;;;;27.87;42.48;95010.34;4982908;28;20644;-51
2022/07/23 13:25:30;;;;;;;3.40;2.53;;;;;;;27.88;42.45;95006.34;4972537;28;20106;-51
2022/07/23 13:27:55;;;;;;;3.08;2.55;;;;;;;27.89;42.72;95009.81;4967860;28;20579;-51
2022/07/23 13:30:20;;;;;;;4.43;2.88;;;;;;;27.85;42.86;95007.41;4973255;28;20027;-52
2022/07/23 13:32:47;;;;;;;3.72;2.70;;;;;;;27.90;42.37;95006.53;4968995;28;20036;-51
2022/07/23 13:35:13;;;;;;;2.97;2.40;;;;;;;27.88;42.82;95000.84;4971054;28;20514;-51
2022/07/23 13:37:38;;;;;;;3.60;2.42;;;;;;;27.92;42.64;95006.75;4967398;28;20027;-52
2022/07/23 13:40:04;;;;;;;4.45;2.63;;;;;;;27.82;42.16;94996.78;4993265;28;20724;-52
2022/07/23 13:42:30;;;;;;;3.50;2.60;;;;;;;27.91;42.09;94999.06;4987322;28;20116;-52
2022/07/23 13:44:55;;;;;;;5.07;2.50;;;;;;;27.85;42.15;95001.22;4982447;28;20540;-53
2022/07/23 13:47:21;;;;;;;3.70;2.40;;;;;;;27.86;42.30;94997.16;4978357;28;20092;-51
2022/07/23 13:49:46;;;;;;;3.42;2.40;;;;;;;27.84;42.87;94994.97;4980103;28;20023;-53
2022/07/23 13:52:11;;;;;;;4.28;2.45;;;;;;;27.85;42.86;94996.44;4960590;28;20065;-52
2022/07/23 13:54:37;;;;;;;3.47;2.50;;;;;;;27.88;42.30;95000.84;4984424;28;20034;-53
2022/07/23 13:57:03;;;;;;;3.05;2.38;;;;;;;27.87;42.88;94988.41;4989551;28;20041;-53
2022/07/23 13:59:28;;;;;;;3.60;2.30;;;;;;;27.82;42.81;94980.31;4991823;28;20108;-51
2022/07/23 14:01:54;;;;;;;3.63;2.20;;;;;;;27.86;42.79;94986.94;5001173;28;20037;-52
2022/07/23 14:04:20;;;;;;;3.33;1.88;;;;;;;27.85;42.55;94995.72;4993168;28;20485;-51
2022/07/23 14:06:46;;;;;;;2.75;2.15;;;;;;;27.89;42.97;94983.13;4983596;28;20136;-51
2022/07/23 14:09:11;;;;;;;3.72;2.40;;;;;;;27.92;42.82;94989.53;5001656;28;20038;-51
2022/07/23 14:11:37;;;;;;;3.83;2.25;;;;;;;27.92;42.29;94990.28;4996853;28;20036;-50
2022/07/23 14:14:02;;;;;;;3.13;2.22;;;;;;;28.01;42.12;94991.78;5001726;28;20037;-52
2022/07/23 14:16:27;;;;;;;3.58;2.10;;;;;;;28.00;42.19;94990.31;4982811;28;20033;-50
2022/07/23 14:18:53;;;;;;;3.25;2.40;;;;;;;27.98;42.21;94976.38;4980099;28;20488;-51
2022/07/23 14:21:18;;;;;;;3.42;2.30;;;;;;;27.96;42.28;94979.66;4967636;28;20198;-52
2022/07/23 14:23:44;;;;;;;2.72;2.10;;;;;;;27.94;42.21;94981.50;5001907;28;20099;-51
2022/07/23 14:26:09;;;;;;;4.95;2.60;;;;;;;27.94;42.53;94976.72;4986717;28;20010;-51